sensor_id;sensor_type;location;lat;lon;timestamp;pressure;altitude;pressure_sealevel;temperature;humidity
47815;BME280;33579;50.058;18.130;2023-02-19T00:00:50;99051.31;;;7.53;100.00
47815;BME280;33579;50.058;18.130;2023-02-19T00:01:52;99055.03;;;7.50;100.00
47815;BME280;33579;50.058;18.130;2023-02-19T00:02:53;99062.00;;;7.38;100.00
47815;BME280;33579;50.058;18.130;2023-02-19T00:04:00;99058.00;;;7.45;100.00
47815;BME280;33579;50.058;18.130;2023-02-19T00:05:02;99051.09;;;7.44;100.00
47815;BME280;33579;50.058;18.130;2023-02-19T00:06:05;99043.47;;;7.41;100.00
47815;BME280;33579;50.058;18.130;2023-02-19T00:07:08;99047.53;;;7.45;100.00
47815;BME280;33579;50.058;18.130;2023-02-19T00:08:09;99052.66;;;7.47;100.00
47815;BME280;33579;50.058;18.130;2023-02-19T00:09:12;99057.88;;;7.47;100.00
47815;BME280;33579;50.058;18.130;2023-02-19T00:10:14;99051.31;;;7.53;100.00
47815;BME280;33579;50.058;18.130;2023-02-19T00:11:18;99056.78;;;7.50;100.00
47815;BME280;33579;50.058;18.130;2023-02-19T00:12:20;99051.34;;;7.41;100.00
47815;BME280;33579;50.058;18.130;2023-02-19T00:13:21;99052.03;;;7.43;100.00
47815;BME280;33579;50.058;18.130;2023-02-19T00:14:23;99053.00;;;7.42;100.00
47815;BME280;33579;50.058;18.130;2023-02-19T00:15:24;99042.53;;;7.42;100.00
47815;BME280;33579;50.058;18.130;2023-02-19T00:16:36;99048.09;;;7.38;100.00
47815;BME280;33579;50.058;18.130;2023-02-19T00:17:38;99046.91;;;7.42;100.00
47815;BME280;33579;50.058;18.130;2023-02-19T00:18:40;99049.63;;;7.40;100.00
47815;BME280;33579;50.058;18.130;2023-02-19T00:19:42;99046.22;;;7.40;100.00
47815;BME280;33579;50.058;18.130;2023-02-19T00:20:44;99052.75;;;7.45;100.00
47815;BME280;33579;50.058;18.130;2023-02-19T00:21:46;99049.44;;;7.43;100.00
47815;BME280;33579;50.058;18.130;2023-02-19T00:22:47;99051.56;;;7.50;100.00
47815;BME280;33579;50.058;18.130;2023-02-19T00:23:50;99052.88;;;7.55;100.00
47815;BME280;33579;50.058;18.130;2023-02-19T00:24:52;99056.34;;;7.56;100.00
47815;BME280;33579;50.058;18.130;2023-02-19T00:25:54;99063.50;;;7.54;100.00
47815;BME280;33579;50.058;18.130;2023-02-19T00:26:55;99064.19;;;7.56;100.00
47815;BME280;33579;50.058;18.130;2023-02-19T00:27:57;99071.69;;;7.49;100.00
47815;BME280;33579;50.058;18.130;2023-02-19T00:29:00;99069.88;;;7.50;100.00
47815;BME280;33579;50.058;18.130;2023-02-19T00:30:01;99067.88;;;7.53;100.00
47815;BME280;33579;50.058;18.130;2023-02-19T00:31:08;99071.56;;;7.51;100.00
47815;BME280;33579;50.058;18.130;2023-02-19T00:32:11;99066.91;;;7.54;100.00
47815;BME280;33579;50.058;18.130;2023-02-19T00:33:14;99079.53;;;7.49;100.00
47815;BME280;33579;50.058;18.130;2023-02-19T00:34:15;99079.91;;;7.56;100.00
47815;BME280;33579;50.058;18.130;2023-02-19T00:35:17;99070.84;;;7.60;100.00
47815;BME280;33579;50.058;18.130;2023-02-19T00:36:19;99065.16;;;7.66;100.00
47815;BME280;33579;50.058;18.130;2023-02-19T00:37:21;99064.06;;;7.69;100.00
47815;BME280;33579;50.058;18.130;2023-02-19T00:38:22;99058.97;;;7.67;100.00
47815;BME280;33579;50.058;18.130;2023-02-19T00:39:25;99058.38;;;7.64;100.00
47815;BME280;33579;50.058;18.130;2023-02-19T00:40:26;99059.31;;;7.63;100.00
47815;BME280;33579;50.058;18.130;2023-02-19T00:41:28;99064.81;;;7.59;100.00
47815;BME280;33579;50.058;18.130;2023-02-19T00:42:29;99068.13;;;7.62;100.00
47815;BME280;33579;50.058;18.130;2023-02-19T00:43:31;99063.09;;;7.58;100.00
47815;BME280;33579;50.058;18.130;2023-02-19T00:44:32;99062.53;;;7.55;100.00
47815;BME280;33579;50.058;18.130;2023-02-19T00:45:34;99069.09;;;7.61;100.00
47815;BME280;33579;50.058;18.130;2023-02-19T00:46:41;99068.13;;;7.62;100.00
47815;BME280;33579;50.058;18.130;2023-02-19T00:47:43;99060.75;;;7.67;100.00
47815;BME280;33579;50.058;18.130;2023-02-19T00:48:45;99057.78;;;7.71;100.00
47815;BME280;33579;50.058;18.130;2023-02-19T00:49:47;99055.25;;;7.81;100.00
47815;BME280;33579;50.058;18.130;2023-02-19T00:50:49;99058.13;;;7.90;100.00
47815;BME280;33579;50.058;18.130;2023-02-19T00:51:51;99061.34;;;7.93;100.00
47815;BME280;33579;50.058;18.130;2023-02-19T00:52:53;99052.78;;;7.91;100.00
47815;BME280;33579;50.058;18.130;2023-02-19T00:53:54;99054.78;;;7.87;100.00
47815;BME280;33579;50.058;18.130;2023-02-19T00:54:56;99058.47;;;7.85;100.00
47815;BME280;33579;50.058;18.130;2023-02-19T00:55:58;99062.75;;;7.86;100.00
47815;BME280;33579;50.058;18.130;2023-02-19T00:56:59;99067.41;;;7.82;100.00
47815;BME280;33579;50.058;18.130;2023-02-19T00:58:01;99067.91;;;7.87;100.00
47815;BME280;33579;50.058;18.130;2023-02-19T00:59:03;99070.63;;;7.86;100.00
47815;BME280;33579;50.058;18.130;2023-02-19T01:00:05;99068.25;;;7.83;100.00
47815;BME280;33579;50.058;18.130;2023-02-19T01:01:08;99069.31;;;7.80;100.00
47815;BME280;33579;50.058;18.130;2023-02-19T01:02:11;99067.53;;;7.81;100.00
47815;BME280;33579;50.058;18.130;2023-02-19T01:03:12;99069.06;;;7.83;100.00
47815;BME280;33579;50.058;18.130;2023-02-19T01:04:15;99068.25;;;7.83;100.00
47815;BME280;33579;50.058;18.130;2023-02-19T01:05:17;99072.78;;;7.81;100.00
47815;BME280;33579;50.058;18.130;2023-02-19T01:06:20;99068.97;;;7.85;100.00
47815;BME280;33579;50.058;18.130;2023-02-19T01:07:22;99071.47;;;7.86;100.00
47815;BME280;33579;50.058;18.130;2023-02-19T01:08:25;99065.97;;;7.90;100.00
47815;BME280;33579;50.058;18.130;2023-02-19T01:09:26;99066.09;;;7.88;100.00
47815;BME280;33579;50.058;18.130;2023-02-19T01:10:28;99067.91;;;7.87;100.00
47815;BME280;33579;50.058;18.130;2023-02-19T01:11:29;99068.25;;;7.83;100.00
47815;BME280;33579;50.058;18.130;2023-02-19T01:12:31;99069.06;;;7.83;100.00
47815;BME280;33579;50.058;18.130;2023-02-19T01:13:33;99067.41;;;7.82;100.00
47815;BME280;33579;50.058;18.130;2023-02-19T01:14:35;99059.53;;;7.82;100.00
47815;BME280;33579;50.058;18.130;2023-02-19T01:15:37;99064.31;;;7.77;100.00
47815;BME280;33579;50.058;18.130;2023-02-19T01:16:39;99054.31;;;7.71;100.00
47815;BME280;33579;50.058;18.130;2023-02-19T01:17:40;99065.63;;;7.71;100.00
47815;BME280;33579;50.058;18.130;2023-02-19T01:18:42;99054.09;;;7.74;100.00
47815;BME280;33579;50.058;18.130;2023-02-19T01:19:44;99051.13;;;7.79;100.00
47815;BME280;33579;50.058;18.130;2023-02-19T01:20:46;99053.59;;;7.80;100.00
47815;BME280;33579;50.058;18.130;2023-02-19T01:21:47;99057.88;;;7.81;100.00
47815;BME280;33579;50.058;18.130;2023-02-19T01:22:49;99047.19;;;7.73;100.00
47815;BME280;33579;50.058;18.130;2023-02-19T01:23:51;99048.59;;;7.77;100.00
47815;BME280;33579;50.058;18.130;2023-02-19T01:24:52;99044.19;;;7.78;100.00
47815;BME280;33579;50.058;18.130;2023-02-19T01:25:54;99045.28;;;7.75;100.00
47815;BME280;33579;50.058;18.130;2023-02-19T01:26:55;99053.72;;;7.67;100.00
47815;BME280;33579;50.058;18.130;2023-02-19T01:27:57;99042.41;;;7.55;100.00
47815;BME280;33579;50.058;18.130;2023-02-19T01:28:59;99045.63;;;7.48;100.00
47815;BME280;33579;50.058;18.130;2023-02-19T01:30:01;99047.41;;;7.47;100.00
47815;BME280;33579;50.058;18.130;2023-02-19T01:31:05;99033.94;;;7.40;100.00
47815;BME280;33579;50.058;18.130;2023-02-19T01:32:07;99034.78;;;7.41;100.00
47815;BME280;33579;50.058;18.130;2023-02-19T01:33:09;99036.94;;;7.36;100.00
47815;BME280;33579;50.058;18.130;2023-02-19T01:34:10;99038.34;;;7.40;100.00
47815;BME280;33579;50.058;18.130;2023-02-19T01:35:12;99039.16;;;7.40;100.00
47815;BME280;33579;50.058;18.130;2023-02-19T01:36:14;99041.09;;;7.50;100.00
47815;BME280;33579;50.058;18.130;2023-02-19T01:37:16;99030.38;;;7.53;100.00
47815;BME280;33579;50.058;18.130;2023-02-19T01:38:17;99030.75;;;7.48;100.00
47815;BME280;33579;50.058;18.130;2023-02-19T01:39:19;99030.63;;;7.50;100.00
47815;BME280;33579;50.058;18.130;2023-02-19T01:40:20;99034.53;;;7.44;100.00
47815;BME280;33579;50.058;18.130;2023-02-19T01:41:23;99037.16;;;7.44;100.00
47815;BME280;33579;50.058;18.130;2023-02-19T01:42:25;99024.91;;;7.44;100.00
47815;BME280;33579;50.058;18.130;2023-02-19T01:43:27;99025.38;;;7.50;100.00
47815;BME280;33579;50.058;18.130;2023-02-19T01:45:30;99019.91;;;7.53;100.00
47815;BME280;33579;50.058;18.130;2023-02-19T01:46:42;99016.81;;;7.48;100.00
47815;BME280;33579;50.058;18.130;2023-02-19T01:47:48;99015.88;;;7.49;100.00
47815;BME280;33579;50.058;18.130;2023-02-19T01:48:51;99011.94;;;7.54;100.00
47815;BME280;33579;50.058;18.130;2023-02-19T01:49:55;99011.94;;;7.54;100.00
47815;BME280;33579;50.058;18.130;2023-02-19T01:51:16;99007.66;;;7.53;100.00
47815;BME280;33579;50.058;18.130;2023-02-19T01:52:26;99008.38;;;7.55;100.00
47815;BME280;33579;50.058;18.130;2023-02-19T01:53:32;99005.75;;;7.55;100.00
47815;BME280;33579;50.058;18.130;2023-02-19T01:54:36;99000.28;;;7.58;100.00
47815;BME280;33579;50.058;18.130;2023-02-19T01:55:41;98999.22;;;7.61;100.00
47815;BME280;33579;50.058;18.130;2023-02-19T01:56:46;98996.22;;;7.66;100.00
47815;BME280;33579;50.058;18.130;2023-02-19T01:57:51;98991.59;;;7.69;100.00
47815;BME280;33579;50.058;18.130;2023-02-19T01:58:54;98997.44;;;7.73;100.00
47815;BME280;33579;50.058;18.130;2023-02-19T02:00:05;98995.28;;;7.67;100.00
47815;BME280;33579;50.058;18.130;2023-02-19T02:01:14;98996.72;;;7.59;100.00
47815;BME280;33579;50.058;18.130;2023-02-19T02:02:15;98995.53;;;7.52;100.00
47815;BME280;33579;50.058;18.130;2023-02-19T02:03:18;98994.81;;;7.50;100.00
47815;BME280;33579;50.058;18.130;2023-02-19T02:04:20;98987.78;;;7.51;100.00
47815;BME280;33579;50.058;18.130;2023-02-19T02:05:43;98977.09;;;7.54;100.00
47815;BME280;33579;50.058;18.130;2023-02-19T02:06:56;98981.25;;;7.56;100.00
47815;BME280;33579;50.058;18.130;2023-02-19T02:08:01;98979.94;;;7.62;100.00
47815;BME280;33579;50.058;18.130;2023-02-19T02:09:03;98966.59;;;7.65;100.00
47815;BME280;33579;50.058;18.130;2023-02-19T02:10:05;98966.13;;;7.71;100.00
47815;BME280;33579;50.058;18.130;2023-02-19T02:11:06;98966.47;;;7.78;100.00
47815;BME280;33579;50.058;18.130;2023-02-19T02:12:09;98968.47;;;7.74;100.00
47815;BME280;33579;50.058;18.130;2023-02-19T02:13:11;98959.09;;;7.72;100.00
47815;BME280;33579;50.058;18.130;2023-02-19T02:14:13;98959.09;;;7.72;100.00
47815;BME280;33579;50.058;18.130;2023-02-19T02:15:16;98958.50;;;7.68;100.00
47815;BME280;33579;50.058;18.130;2023-02-19T02:22:00;98942.13;;;7.43;100.00
47815;BME280;33579;50.058;18.130;2023-02-19T02:23:28;98948.88;;;7.46;100.00
47815;BME280;33579;50.058;18.130;2023-02-19T02:30:38;98933.19;;;7.35;100.00
47815;BME280;33579;50.058;18.130;2023-02-19T02:31:46;98926.28;;;7.34;100.00
47815;BME280;33579;50.058;18.130;2023-02-19T02:34:08;98934.97;;;7.34;100.00
47815;BME280;33579;50.058;18.130;2023-02-19T02:35:13;98930.59;;;7.35;100.00
47815;BME280;33579;50.058;18.130;2023-02-19T02:36:21;98932.59;;;7.31;100.00
47815;BME280;33579;50.058;18.130;2023-02-19T02:37:26;98928.06;;;7.33;100.00
47815;BME280;33579;50.058;18.130;2023-02-19T02:38:33;98933.06;;;7.36;100.00
47815;BME280;33579;50.058;18.130;2023-02-19T02:39:36;98926.16;;;7.35;100.00
47815;BME280;33579;50.058;18.130;2023-02-19T02:40:41;98924.00;;;7.40;100.00
47815;BME280;33579;50.058;18.130;2023-02-19T02:41:48;98922.94;;;7.43;100.00
47815;BME280;33579;50.058;18.130;2023-02-19T02:42:50;98921.19;;;7.43;100.00
47815;BME280;33579;50.058;18.130;2023-02-19T02:43:52;98916.66;;;7.45;100.00
47815;BME280;33579;50.058;18.130;2023-02-19T02:44:55;98914.63;;;7.49;100.00
47815;BME280;33579;50.058;18.130;2023-02-19T02:45:57;98909.25;;;7.51;100.00
47815;BME280;33579;50.058;18.130;2023-02-19T02:47:05;98909.03;;;7.54;100.00
47815;BME280;33579;50.058;18.130;2023-02-19T02:48:16;98906.41;;;7.54;100.00
47815;BME280;33579;50.058;18.130;2023-02-19T02:49:20;98899.25;;;7.56;100.00
47815;BME280;33579;50.058;18.130;2023-02-19T02:50:32;98897.47;;;7.56;100.00
47815;BME280;33579;50.058;18.130;2023-02-19T02:51:40;98897.25;;;7.59;100.00
47815;BME280;33579;50.058;18.130;2023-02-19T02:52:55;98905.09;;;7.59;100.00
47815;BME280;33579;50.058;18.130;2023-02-19T02:55:09;98909.38;;;7.49;100.00
47815;BME280;33579;50.058;18.130;2023-02-19T02:56:13;98914.97;;;7.44;100.00
47815;BME280;33579;50.058;18.130;2023-02-19T02:57:16;98908.56;;;7.37;100.00
47815;BME280;33579;50.058;18.130;2023-02-19T02:58:23;98907.97;;;7.34;100.00
47815;BME280;33579;50.058;18.130;2023-02-19T02:59:35;98901.81;;;7.23;100.00
47815;BME280;33579;50.058;18.130;2023-02-19T03:00:38;98903.69;;;7.21;100.00
47815;BME280;33579;50.058;18.130;2023-02-19T03:01:54;98903.94;;;7.18;100.00
47815;BME280;33579;50.058;18.130;2023-02-19T03:02:57;98893.59;;;7.16;100.00
47815;BME280;33579;50.058;18.130;2023-02-19T03:04:03;98899.66;;;7.17;100.00
47815;BME280;33579;50.058;18.130;2023-02-19T03:05:13;98900.50;;;7.17;100.00
47815;BME280;33579;50.058;18.130;2023-02-19T03:06:16;98903.09;;;7.17;100.00
47815;BME280;33579;50.058;18.130;2023-02-19T03:07:21;98898.22;;;7.13;100.00
47815;BME280;33579;50.058;18.130;2023-02-19T03:08:31;98898.94;;;7.15;100.00
47815;BME280;33579;50.058;18.130;2023-02-19T03:09:40;98895.25;;;7.17;100.00
47815;BME280;33579;50.058;18.130;2023-02-19T03:10:48;98901.44;;;7.16;100.00
47815;BME280;33579;50.058;18.130;2023-02-19T03:11:52;98898.09;;;7.14;100.00
47815;BME280;33579;50.058;18.130;2023-02-19T03:12:56;98901.66;;;7.13;100.00
47815;BME280;33579;50.058;18.130;2023-02-19T03:15:08;98902.97;;;7.08;100.00
47815;BME280;33579;50.058;18.130;2023-02-19T03:16:32;98909.66;;;7.12;100.00
47815;BME280;33579;50.058;18.130;2023-02-19T03:17:47;98900.72;;;7.14;100.00
47815;BME280;33579;50.058;18.130;2023-02-19T03:18:52;98904.97;;;7.15;100.00
47815;BME280;33579;50.058;18.130;2023-02-19T03:19:56;98900.84;;;7.13;100.00
47815;BME280;33579;50.058;18.130;2023-02-19T03:20:59;98902.97;;;7.08;100.00
47815;BME280;33579;50.058;18.130;2023-02-19T03:22:14;98902.16;;;7.07;100.00
47815;BME280;33579;50.058;18.130;2023-02-19T03:23:18;98896.22;;;7.05;100.00
47815;BME280;33579;50.058;18.130;2023-02-19T03:24:29;98902.16;;;7.07;100.00
47815;BME280;33579;50.058;18.130;2023-02-19T03:25:32;98893.94;;;7.12;100.00
47815;BME280;33579;50.058;18.130;2023-02-19T03:26:36;98888.59;;;7.13;100.00
47815;BME280;33579;50.058;18.130;2023-02-19T03:27:41;98889.66;;;7.11;100.00
47815;BME280;33579;50.058;18.130;2023-02-19T03:28:44;98894.06;;;7.10;100.00
47815;BME280;33579;50.058;18.130;2023-02-19T03:29:49;98889.78;;;7.09;100.00
47815;BME280;33579;50.058;18.130;2023-02-19T03:30:54;98884.44;;;7.11;100.00
47815;BME280;33579;50.058;18.130;2023-02-19T03:32:12;98876.34;;;7.14;100.00
47815;BME280;33579;50.058;18.130;2023-02-19T03:33:25;98879.19;;;7.22;100.00
47815;BME280;33579;50.058;18.130;2023-02-19T03:34:36;98878.72;;;7.28;100.00
47815;BME280;33579;50.058;18.130;2023-02-19T03:35:45;98878.34;;;7.33;100.00
47815;BME280;33579;50.058;18.130;2023-02-19T03:36:53;98879.66;;;7.39;100.00
47815;BME280;33579;50.058;18.130;2023-02-19T03:38:20;98878.44;;;7.43;100.00
47815;BME280;33579;50.058;18.130;2023-02-19T03:39:24;98874.88;;;7.44;100.00
47815;BME280;33579;50.058;18.130;2023-02-19T03:40:29;98876.44;;;7.47;100.00
47815;BME280;33579;50.058;18.130;2023-02-19T03:42:01;98871.91;;;7.49;100.00
47815;BME280;33579;50.058;18.130;2023-02-19T03:43:38;98862.88;;;7.41;100.00
47815;BME280;33579;50.058;18.130;2023-02-19T03:44:51;98861.94;;;7.42;100.00
47815;BME280;33579;50.058;18.130;2023-02-19T03:46:08;98856.34;;;7.47;100.00
47815;BME280;33579;50.058;18.130;2023-02-19T03:47:16;98859.66;;;7.49;100.00
47815;BME280;33579;50.058;18.130;2023-02-19T03:48:29;98841.34;;;7.49;100.00
47815;BME280;33579;50.058;18.130;2023-02-19T03:51:50;98855.50;;;7.47;100.00
47815;BME280;33579;50.058;18.130;2023-02-19T03:53:50;98860.72;;;7.47;100.00
47815;BME280;33579;50.058;18.130;2023-02-19T03:54:41;98865.69;;;7.50;100.00
47815;BME280;33579;50.058;18.130;2023-02-19T03:56:03;98865.44;;;7.53;100.00
47815;BME280;33579;50.058;18.130;2023-02-19T04:00:50;98868.81;;;7.55;100.00
47815;BME280;33579;50.058;18.130;2023-02-19T04:01:59;98874.41;;;7.50;100.00
47815;BME280;33579;50.058;18.130;2023-02-19T04:03:14;98874.88;;;7.44;100.00
47815;BME280;33579;50.058;18.130;2023-02-19T04:04:23;98883.69;;;7.43;100.00
47815;BME280;33579;50.058;18.130;2023-02-19T04:05:31;98870.50;;;7.44;100.00
47815;BME280;33579;50.058;18.130;2023-02-19T04:06:34;98878.09;;;7.48;100.00
47815;BME280;33579;50.058;18.130;2023-02-19T04:07:41;98878.78;;;7.50;100.00
47815;BME280;33579;50.058;18.130;2023-02-19T04:08:48;98875.94;;;7.53;100.00
47815;BME280;33579;50.058;18.130;2023-02-19T04:09:53;98867.38;;;7.51;100.00
47815;BME280;33579;50.058;18.130;2023-02-19T04:10:57;98866.81;;;7.47;100.00
47815;BME280;33579;50.058;18.130;2023-02-19T04:12:04;98865.25;;;7.44;100.00
47815;BME280;33579;50.058;18.130;2023-02-19T04:13:11;98869.78;;;7.31;100.00
47815;BME280;33579;50.058;18.130;2023-02-19T04:15:25;98869.31;;;7.14;100.00
47815;BME280;33579;50.058;18.130;2023-02-19T04:16:29;98867.78;;;7.12;100.00
47815;BME280;33579;50.058;18.130;2023-02-19T04:17:37;98863.63;;;7.09;100.00
47815;BME280;33579;50.058;18.130;2023-02-19T04:18:40;98861.72;;;7.11;100.00
47815;BME280;33579;50.058;18.130;2023-02-19T04:19:45;98866.84;;;7.13;100.00
47815;BME280;33579;50.058;18.130;2023-02-19T04:20:49;98863.38;;;7.12;100.00
47815;BME280;33579;50.058;18.130;2023-02-19T04:21:51;98864.69;;;7.18;100.00
47815;BME280;33579;50.058;18.130;2023-02-19T04:22:53;98865.16;;;7.23;100.00
47815;BME280;33579;50.058;18.130;2023-02-19T04:23:58;98864.91;;;7.26;100.00
47815;BME280;33579;50.058;18.130;2023-02-19T04:25:03;98865.53;;;7.30;100.00
47815;BME280;33579;50.058;18.130;2023-02-19T04:26:05;98867.53;;;7.38;100.00
47815;BME280;33579;50.058;18.130;2023-02-19T04:27:08;98861.94;;;7.42;100.00
47815;BME280;33579;50.058;18.130;2023-02-19T04:28:12;98867.72;;;7.46;100.00
47815;BME280;33579;50.058;18.130;2023-02-19T04:29:14;98876.44;;;7.47;100.00
47815;BME280;33579;50.058;18.130;2023-02-19T04:30:16;98866.66;;;7.49;100.00
47815;BME280;33579;50.058;18.130;2023-02-19T04:31:18;98866.19;;;7.55;100.00
47815;BME280;33579;50.058;18.130;2023-02-19T04:32:20;98868.44;;;7.59;100.00
47815;BME280;33579;50.058;18.130;2023-02-19T04:33:21;98861.41;;;7.60;100.00
47815;BME280;33579;50.058;18.130;2023-02-19T04:34:23;98846.41;;;7.62;100.00
47815;BME280;33579;50.058;18.130;2023-02-19T04:35:24;98849.59;;;7.66;100.00
47815;BME280;33579;50.058;18.130;2023-02-19T04:36:26;98853.66;;;7.58;100.00
47815;BME280;33579;50.058;18.130;2023-02-19T04:37:27;98842.63;;;7.55;100.00
47815;BME280;33579;50.058;18.130;2023-02-19T04:38:30;98836.19;;;7.59;100.00
47815;BME280;33579;50.058;18.130;2023-02-19T04:39:32;98833.69;;;7.57;100.00
47815;BME280;33579;50.058;18.130;2023-02-19T04:40:33;98832.84;;;7.57;100.00
47815;BME280;33579;50.058;18.130;2023-02-19T04:41:35;98829.66;;;7.53;100.00
47815;BME280;33579;50.058;18.130;2023-02-19T04:42:36;98827.72;;;7.55;100.00
47815;BME280;33579;50.058;18.130;2023-02-19T04:43:38;98827.28;;;7.50;100.00
47815;BME280;33579;50.058;18.130;2023-02-19T04:44:39;98826.44;;;7.50;100.00
47815;BME280;33579;50.058;18.130;2023-02-19T04:45:41;98824.66;;;7.50;100.00
47815;BME280;33579;50.058;18.130;2023-02-19T04:46:43;98827.53;;;7.47;100.00
47815;BME280;33579;50.058;18.130;2023-02-19T04:47:44;98829.19;;;7.48;100.00
47815;BME280;33579;50.058;18.130;2023-02-19T04:48:46;98827.03;;;7.53;100.00
47815;BME280;33579;50.058;18.130;2023-02-19T04:49:47;98821.31;;;7.59;100.00
47815;BME280;33579;50.058;18.130;2023-02-19T04:50:49;98821.66;;;7.66;100.00
47815;BME280;33579;50.058;18.130;2023-02-19T04:51:50;98819.16;;;7.65;100.00
47815;BME280;33579;50.058;18.130;2023-02-19T04:52:52;98822.47;;;7.67;100.00
47815;BME280;33579;50.058;18.130;2023-02-19T04:53:53;98811.75;;;7.70;100.00
47815;BME280;33579;50.058;18.130;2023-02-19T04:54:55;98811.38;;;7.74;100.00
47815;BME280;33579;50.058;18.130;2023-02-19T04:55:56;98800.41;;;7.81;100.00
47815;BME280;33579;50.058;18.130;2023-02-19T04:56:58;98803.59;;;7.84;100.00
47815;BME280;33579;50.058;18.130;2023-02-19T04:57:59;98807.88;;;7.85;100.00
47815;BME280;33579;50.058;18.130;2023-02-19T04:59:01;98808.50;;;7.78;100.00
47815;BME280;33579;50.058;18.130;2023-02-19T05:00:03;98801.16;;;7.71;100.00
47815;BME280;33579;50.058;18.130;2023-02-19T05:01:05;98808.16;;;7.71;100.00
47815;BME280;33579;50.058;18.130;2023-02-19T05:02:07;98810.69;;;7.61;100.00
47815;BME280;33579;50.058;18.130;2023-02-19T05:03:08;98809.16;;;7.58;100.00
47815;BME280;33579;50.058;18.130;2023-02-19T05:04:10;98801.56;;;7.55;100.00
47815;BME280;33579;50.058;18.130;2023-02-19T05:05:12;98807.31;;;7.49;100.00
47815;BME280;33579;50.058;18.130;2023-02-19T05:06:13;98801.72;;;7.42;100.00
47815;BME280;33579;50.058;18.130;2023-02-19T05:07:15;98802.19;;;7.48;100.00
47815;BME280;33579;50.058;18.130;2023-02-19T05:08:16;98801.22;;;7.49;100.00
47815;BME280;33579;50.058;18.130;2023-02-19T05:09:18;98807.66;;;7.44;100.00
47815;BME280;33579;50.058;18.130;2023-02-19T05:10:19;98801.84;;;7.41;100.00
47815;BME280;33579;50.058;18.130;2023-02-19T05:11:21;98801.97;;;7.39;100.00
47815;BME280;33579;50.058;18.130;2023-02-19T05:12:22;98795.75;;;7.40;100.00
47815;BME280;33579;50.058;18.130;2023-02-19T05:13:24;98794.84;;;7.41;100.00
47815;BME280;33579;50.058;18.130;2023-02-19T05:14:26;98791.38;;;7.41;100.00
47815;BME280;33579;50.058;18.130;2023-02-19T05:15:27;98796.03;;;7.37;100.00
47815;BME280;33579;50.058;18.130;2023-02-19T05:16:29;98792.00;;;7.33;100.00
47815;BME280;33579;50.058;18.130;2023-02-19T05:17:33;98791.50;;;7.28;100.00
47815;BME280;33579;50.058;18.130;2023-02-19T05:18:35;98789.16;;;7.25;100.00
47815;BME280;33579;50.058;18.130;2023-02-19T05:19:37;98792.47;;;7.27;100.00
47815;BME280;33579;50.058;18.130;2023-02-19T05:20:38;98794.13;;;7.28;100.00
47815;BME280;33579;50.058;18.130;2023-02-19T05:21:40;98796.28;;;7.23;100.00
47815;BME280;33579;50.058;18.130;2023-02-19T05:22:41;98794.28;;;7.26;100.00
47815;BME280;33579;50.058;18.130;2023-02-19T05:23:43;98791.75;;;7.25;100.00
47815;BME280;33579;50.058;18.130;2023-02-19T05:24:44;98788.44;;;7.23;100.00
47815;BME280;33579;50.058;18.130;2023-02-19T05:25:46;98797.13;;;7.23;100.00
47815;BME280;33579;50.058;18.130;2023-02-19T05:26:48;98788.34;;;7.24;100.00
47815;BME280;33579;50.058;18.130;2023-02-19T05:27:49;98788.34;;;7.24;100.00
47815;BME280;33579;50.058;18.130;2023-02-19T05:28:53;98792.47;;;7.27;100.00
47815;BME280;33579;50.058;18.130;2023-02-19T05:29:54;98786.66;;;7.23;100.00
47815;BME280;33579;50.058;18.130;2023-02-19T05:30:56;98798.06;;;7.22;100.00
47815;BME280;33579;50.058;18.130;2023-02-19T05:31:57;98797.94;;;7.24;100.00
47815;BME280;33579;50.058;18.130;2023-02-19T05:32:59;98806.50;;;7.26;100.00
47815;BME280;33579;50.058;18.130;2023-02-19T05:34:01;98809.84;;;7.28;100.00
47815;BME280;33579;50.058;18.130;2023-02-19T05:35:02;98808.31;;;7.25;100.00
47815;BME280;33579;50.058;18.130;2023-02-19T05:36:06;98808.31;;;7.25;100.00
47815;BME280;33579;50.058;18.130;2023-02-19T05:37:08;98812.84;;;7.23;100.00
47815;BME280;33579;50.058;18.130;2023-02-19T05:38:10;98813.06;;;7.20;100.00
47815;BME280;33579;50.058;18.130;2023-02-19T05:39:12;98804.66;;;7.16;100.00
47815;BME280;33579;50.058;18.130;2023-02-19T05:40:13;98801.28;;;7.14;100.00
47815;BME280;33579;50.058;18.130;2023-02-19T05:41:20;98806.53;;;7.14;100.00
47815;BME280;33579;50.058;18.130;2023-02-19T05:42:22;98809.88;;;7.16;100.00
47815;BME280;33579;50.058;18.130;2023-02-19T05:43:23;98805.34;;;7.19;100.00
47815;BME280;33579;50.058;18.130;2023-02-19T05:44:25;98802.47;;;7.22;100.00
47815;BME280;33579;50.058;18.130;2023-02-19T05:45:26;98810.34;;;7.22;100.00
47815;BME280;33579;50.058;18.130;2023-02-19T05:46:28;98808.69;;;7.21;100.00
47815;BME280;33579;50.058;18.130;2023-02-19T05:47:30;98807.97;;;7.19;100.00
47815;BME280;33579;50.058;18.130;2023-02-19T05:48:32;98811.28;;;7.21;100.00
47815;BME280;33579;50.058;18.130;2023-02-19T05:49:34;98805.34;;;7.19;100.00
47815;BME280;33579;50.058;18.130;2023-02-19T05:50:36;98813.41;;;7.15;100.00
47815;BME280;33579;50.058;18.130;2023-02-19T05:51:49;98810.69;;;7.17;100.00
47815;BME280;33579;50.058;18.130;2023-02-19T05:52:51;98804.75;;;7.15;100.00
47815;BME280;33579;50.058;18.130;2023-02-19T05:53:53;98802.59;;;7.20;100.00
47815;BME280;33579;50.058;18.130;2023-02-19T05:54:55;98810.34;;;7.22;100.00
47815;BME280;33579;50.058;18.130;2023-02-19T05:55:57;98809.25;;;7.24;100.00
47815;BME280;33579;50.058;18.130;2023-02-19T05:56:58;98809.38;;;7.23;100.00
47815;BME280;33579;50.058;18.130;2023-02-19T05:58:00;98802.38;;;7.23;100.00
47815;BME280;33579;50.058;18.130;2023-02-19T05:59:16;98805.09;;;7.22;100.00
47815;BME280;33579;50.058;18.130;2023-02-19T06:00:19;98804.41;;;7.20;100.00